Christian Reinauer — WDA6472 — position and weather

sailwx.info

Track history (hours):
 
Tides and Currents Weather Stations Pressure Air Temp Water Temp Dewpoint Dewpoint Depression Visibility Wind Speed Wind Dir Waves Ship Positions

Christian Reinauer

Owner: REINAUER TRANSPORTATION CO LLC, STATEN ISLAND, NY. More information available from US FCC via Universal Licensing System and Coast Guard Vessel Documentation Center.

Last reported at 2015-Feb-28 05:06 UTC. Time now 2015-Feb-28 19:24 UTC.
Position N 25°40' W 080°02'.

Length 170 m; draft 7 m.

Type: Ship (hazmat cat B). MMSI: 366832740.

Date/timePositionNaut miles runAvg speedWind from/ knotsBaromVisibWave heightAir tempDewpointWater temp
2015-Feb-28 05:06N 25°40' W 080°02'4 7.9
2015-Feb-28 04:33N 25°44' W 080°02'8 7.6
2015-Feb-28 03:33N 25°52' W 080°02'8 8.1
2015-Feb-28 02:33N 26°00' W 080°02'1110.8
2015-Feb-28 01:33N 26°11' W 080°03'1211.7
2015-Feb-28 00:33N 26°22' W 080°02'1111.1
2015-Feb-27 23:33N 26°33' W 079°60'1410.2
2015-Feb-27 22:10N 26°48' W 079°58'610.4
2015-Feb-27 21:34N 26°54' W 079°58'1010.3
2015-Feb-27 20:33N 27°04' W 079°59'  
2015-Feb-25 05:33N 27°01' W 079°59'1312.8
2015-Feb-25 04:33N 26°48' W 079°58'  
2015-Feb-22 07:31N 29°57' W 090°04'  
Track history (hours):
 
Tides and Currents Weather Stations Pressure Air Temp Water Temp Dewpoint Dewpoint Depression Visibility Wind Speed Wind Dir Waves Ship Positions

Christian Reinauer

Owner: REINAUER TRANSPORTATION CO LLC, STATEN ISLAND, NY. More information available from US FCC via Universal Licensing System and Coast Guard Vessel Documentation Center.

Last reported at 2015-Feb-28 05:06 UTC. Time now 2015-Feb-28 19:24 UTC.
Position N 25°40' W 080°02'.

Length 170 m; draft 7 m.

Type: Ship (hazmat cat B). MMSI: 366832740.

Date/timePositionNaut miles runAvg speedWind from/ knotsBaromVisibWave heightAir tempDewpointWater temp
2015-Feb-28 05:06N 25°40' W 080°02'4 7.9
2015-Feb-28 04:33N 25°44' W 080°02'8 7.6
2015-Feb-28 03:33N 25°52' W 080°02'8 8.1
2015-Feb-28 02:33N 26°00' W 080°02'1110.8
2015-Feb-28 01:33N 26°11' W 080°03'1211.7
2015-Feb-28 00:33N 26°22' W 080°02'1111.1
2015-Feb-27 23:33N 26°33' W 079°60'1410.2
2015-Feb-27 22:10N 26°48' W 079°58'610.4
2015-Feb-27 21:34N 26°54' W 079°58'1010.3
2015-Feb-27 20:33N 27°04' W 079°59'  
2015-Feb-25 05:33N 27°01' W 079°59'1312.8
2015-Feb-25 04:33N 26°48' W 079°58'  
2015-Feb-22 07:31N 29°57' W 090°04'  

Dump ship's entire track history